Time;durP1;ratioP1;P1;durP2;ratioP2;P2;SDS_P1;SDS_P2;PMS_P1;PMS_P2;Temp;Humidity;BMP_temperature;BMP_pressure;BME280_temperature;BME280_humidity;BME280_pressure;Samples;Min_cycle;Max_cycle;Signal;HPM_P1;HPM_P2
2022/10/04 00:00:13;;;;;;;6.38;3.13;;;18.60;55.40;;;;;;4924910;29;20207;-42
2022/10/04 00:02:49;;;;;;;5.82;2.70;;;18.70;55.50;;;;;;4936446;29;20219;-37
2022/10/04 00:05:26;;;;;;;7.72;2.92;;;18.70;55.60;;;;;;4936592;29;20210;-36
2022/10/04 00:08:01;;;;;;;6.25;2.60;;;18.70;55.60;;;;;;4935657;29;20660;-37
2022/10/04 00:10:35;;;;;;;5.32;2.38;;;18.80;55.70;;;;;;4936333;29;20211;-37
2022/10/04 00:13:07;;;;;;;6.03;2.55;;;18.80;55.70;;;;;;4935545;29;20748;-36
2022/10/04 00:15:40;;;;;;;6.93;2.67;;;18.80;55.70;;;;;;4936863;29;20199;-39
2022/10/04 00:18:32;;;;;;;6.75;2.78;;;18.80;55.70;;;;;;4936715;29;20210;-37
2022/10/04 00:21:07;;;;;;;4.28;2.65;;;18.80;55.80;;;;;;4936623;29;20563;-42
2022/10/04 00:23:47;;;;;;;6.53;2.70;;;18.80;55.60;;;;;;4936217;29;20210;-38
2022/10/04 00:26:58;;;;;;;8.18;3.15;;;18.90;55.60;;;;;;4935051;29;20620;-36
2022/10/04 00:29:37;;;;;;;5.78;2.88;;;18.90;55.60;;;;;;4931603;29;20196;-37
2022/10/04 00:32:29;;;;;;;4.20;2.28;;;19.00;55.60;;;;;;4935294;29;20223;-38
2022/10/04 00:35:01;;;;;;;5.90;2.42;;;19.00;55.70;;;;;;4936334;29;20592;-37
2022/10/04 00:37:57;;;;;;;5.38;2.67;;;19.00;55.60;;;;;;4921148;29;20200;-37
2022/10/04 00:40:31;;;;;;;4.40;2.20;;;19.00;55.70;;;;;;4917045;29;20208;-37
2022/10/04 00:43:04;;;;;;;4.85;2.55;;;19.00;55.70;;;;;;4916181;29;20229;-38
2022/10/04 00:45:40;;;;;;;4.15;2.53;;;19.00;55.70;;;;;;4917309;29;20207;-37
2022/10/04 00:48:45;;;;;;;4.38;1.95;;;19.10;56.10;;;;;;4916883;29;20200;-39
2022/10/04 00:51:24;;;;;;;3.72;2.05;;;19.10;55.80;;;;;;4928882;29;20199;-37
2022/10/04 00:54:14;;;;;;;3.70;2.05;;;19.10;55.70;;;;;;4926235;29;20223;-36
2022/10/04 00:56:50;;;;;;;4.55;2.28;;;19.10;55.70;;;;;;4934814;29;20203;-40
2022/10/04 00:59:32;;;;;;;7.00;2.35;;;19.20;55.60;;;;;;4934352;29;20246;-36
2022/10/04 01:02:08;;;;;;;4.80;2.17;;;19.20;55.60;;;;;;4933999;29;20215;-40
2022/10/04 01:04:47;;;;;;;3.75;2.10;;;19.20;55.50;;;;;;4935629;29;20223;-40
2022/10/04 01:07:22;;;;;;;4.40;1.80;;;19.30;55.60;;;;;;4934475;29;20191;-38
2022/10/04 01:09:58;;;;;;;4.82;2.10;;;19.30;55.60;;;;;;4935255;29;20203;-36
2022/10/04 01:12:43;;;;;;;3.22;1.95;;;19.30;55.60;;;;;;4935090;29;20223;-36
2022/10/04 01:15:19;;;;;;;2.90;1.67;;;19.40;55.60;;;;;;4935573;29;20239;-37
2022/10/04 01:18:09;;;;;;;3.13;1.70;;;19.40;55.60;;;;;;4934417;29;20258;-36
2022/10/04 01:20:42;;;;;;;2.28;1.60;;;19.40;55.60;;;;;;4916798;29;20200;-36
2022/10/04 01:23:41;;;;;;;3.05;1.90;;;19.40;55.50;;;;;;4915539;29;20280;-36
2022/10/04 01:26:40;;;;;;;2.92;1.75;;;19.50;55.50;;;;;;4916312;29;20275;-37
2022/10/04 01:29:13;;;;;;;3.60;1.60;;;19.50;55.40;;;;;;4915812;29;20200;-36
2022/10/04 01:31:46;;;;;;;3.42;1.85;;;19.50;55.20;;;;;;4917513;29;20224;-36
2022/10/04 01:34:18;;;;;;;2.88;1.73;;;19.60;55.10;;;;;;4934733;29;20715;-36
2022/10/04 01:36:51;;;;;;;2.72;1.48;;;19.60;55.00;;;;;;4933333;29;20204;-37
2022/10/04 01:39:26;;;;;;;2.88;1.83;;;19.60;55.00;;;;;;4935012;29;20290;-37
2022/10/04 01:42:02;;;;;;;1.10;0.82;;;19.60;55.00;;;;;;4934641;29;20238;-38
2022/10/04 01:44:38;;;;;;;2.13;0.90;;;19.70;53.40;;;;;;4935131;29;20247;-37
2022/10/04 01:47:14;;;;;;;1.67;0.80;;;19.70;52.40;;;;;;4934744;29;20573;-37
2022/10/04 01:49:47;;;;;;;2.95;0.70;;;19.70;51.40;;;;;;4934656;29;20199;-38
2022/10/04 01:52:21;;;;;;;3.70;0.80;;;19.80;50.30;;;;;;4934078;29;20219;-36
2022/10/04 01:55:00;;;;;;;1.45;0.65;;;19.80;50.00;;;;;;4926181;29;20234;-36
2022/10/04 01:57:37;;;;;;;1.98;0.65;;;19.80;50.20;;;;;;4934608;29;20208;-36
2022/10/04 02:00:11;;;;;;;1.65;0.80;;;19.80;50.30;;;;;;4934218;29;20233;-40
2022/10/04 02:02:46;;;;;;;1.30;0.63;;;19.90;50.60;;;;;;4934541;29;20267;-37
2022/10/04 02:05:22;;;;;;;2.55;1.00;;;19.90;50.60;;;;;;4933901;29;20207;-36
2022/10/04 02:07:54;;;;;;;3.83;0.77;;;19.90;50.60;;;;;;4934189;29;20198;-36
2022/10/04 02:10:29;;;;;;;2.22;0.70;;;19.90;50.70;;;;;;4934453;29;20699;-36
2022/10/04 02:13:00;;;;;;;1.77;0.60;;;20.00;50.90;;;;;;4934666;29;20223;-36
2022/10/04 02:15:31;;;;;;;2.45;0.70;;;20.00;51.00;;;;;;4933835;29;20238;-38
2022/10/04 02:18:05;;;;;;;2.58;0.90;;;20.00;51.10;;;;;;4934699;29;20203;-37
2022/10/04 02:20:36;;;;;;;1.48;0.90;;;20.10;51.40;;;;;;4934153;29;20206;-39
2022/10/04 02:23:06;;;;;;;1.10;0.60;;;20.10;51.70;;;;;;4933264;29;20223;-41
2022/10/04 02:25:40;;;;;;;1.55;0.63;;;20.10;51.70;;;;;;4933065;29;20605;-37
2022/10/04 02:28:14;;;;;;;1.20;0.73;;;20.20;51.80;;;;;;4933781;29;20199;-37
2022/10/04 02:32:56;;;;;;;1.60;0.90;;;20.30;51.70;;;;;;4933421;29;20211;-41
2022/10/04 02:33:41;;;;;;;0.88;0.60;;;20.30;51.60;;;;;;4933981;29;20691;-39
2022/10/04 02:36:13;;;;;;;1.40;0.57;;;20.30;51.40;;;;;;4933240;29;20199;-37
2022/10/04 02:38:49;;;;;;;0.95;0.77;;;20.30;51.30;;;;;;4933022;29;20199;-38
2022/10/04 02:41:30;;;;;;;0.98;0.60;;;20.40;51.20;;;;;;4933653;29;20199;-37
2022/10/04 02:44:06;;;;;;;2.58;0.70;;;20.40;51.20;;;;;;4920106;29;20204;-37
2022/10/04 02:46:46;;;;;;;1.58;0.85;;;20.40;51.20;;;;;;4932537;29;20206;-37
2022/10/04 02:49:28;;;;;;;2.53;0.60;;;20.40;51.30;;;;;;4932910;29;20199;-37
2022/10/04 02:52:05;;;;;;;1.35;0.60;;;20.50;51.50;;;;;;4930124;29;20222;-36
2022/10/04 02:54:42;;;;;;;0.90;0.60;;;20.50;51.50;;;;;;4932137;29;20234;-36
2022/10/04 02:57:24;;;;;;;1.80;0.70;;;20.50;51.60;;;;;;4933062;29;20218;-36
2022/10/04 03:00:11;;;;;;;0.93;0.63;;;20.50;51.40;;;;;;4933131;29;20211;-36
2022/10/04 03:02:42;;;;;;;0.85;0.80;;;20.50;51.30;;;;;;4933614;29;20227;-40
2022/10/04 03:05:16;;;;;;;0.98;0.60;;;20.50;51.60;;;;;;4933252;29;20199;-36
2022/10/04 03:07:50;;;;;;;1.40;0.73;;;20.50;51.60;;;;;;4933215;29;20628;-36
2022/10/04 03:10:21;;;;;;;1.30;0.50;;;20.50;51.60;;;;;;4932803;29;20254;-37
2022/10/04 03:12:55;;;;;;;1.13;0.70;;;20.50;51.50;;;;;;4933149;29;20230;-37
2022/10/04 03:15:26;;;;;;;1.15;0.60;;;20.50;51.50;;;;;;4933265;29;20253;-36
2022/10/04 03:17:57;;;;;;;0.93;0.50;;;20.60;51.50;;;;;;4932836;29;20290;-37
2022/10/04 03:20:28;;;;;;;1.38;0.70;;;20.60;51.40;;;;;;4933885;29;20196;-37
2022/10/04 03:23:00;;;;;;;0.57;0.50;;;20.60;51.50;;;;;;4933237;29;20695;-38
2022/10/04 03:25:38;;;;;;;1.65;0.68;;;20.60;51.40;;;;;;4932901;29;20210;-37
2022/10/04 03:28:11;;;;;;;1.40;0.70;;;20.50;51.10;;;;;;4933064;29;20691;-36
2022/10/04 03:30:46;;;;;;;1.13;0.50;;;20.60;51.20;;;;;;4933299;29;20200;-39
2022/10/04 03:33:22;;;;;;;0.95;0.57;;;20.50;51.10;;;;;;4932432;29;20219;-36
2022/10/04 03:35:54;;;;;;;0.88;0.60;;;20.60;51.20;;;;;;4931866;29;20311;-36
2022/10/04 03:38:27;;;;;;;1.55;0.63;;;20.50;51.40;;;;;;4932161;29;20208;-36
2022/10/04 03:41:00;;;;;;;1.75;0.68;;;20.60;51.50;;;;;;4932407;29;20203;-39
2022/10/04 03:43:34;;;;;;;0.70;0.55;;;20.60;51.50;;;;;;4932400;29;20212;-38
2022/10/04 03:46:07;;;;;;;0.95;0.50;;;20.50;51.30;;;;;;4932350;29;20878;-39
2022/10/04 03:48:40;;;;;;;0.85;0.70;;;20.60;51.20;;;;;;4933143;29;20283;-36
2022/10/04 03:51:18;;;;;;;0.60;0.40;;;20.60;51.10;;;;;;4932120;29;20200;-37
2022/10/04 03:53:50;;;;;;;0.88;0.50;;;20.60;51.00;;;;;;4933151;29;20203;-36
2022/10/04 03:56:29;;;;;;;1.15;0.60;;;20.60;51.00;;;;;;4916686;29;20908;-49
2022/10/04 03:59:03;;;;;;;0.90;0.57;;;20.50;51.00;;;;;;4913976;29;20200;-37
2022/10/04 04:01:40;;;;;;;0.70;0.50;;;20.50;51.00;;;;;;4916756;29;20599;-44
2022/10/04 04:04:21;;;;;;;1.45;0.50;;;20.50;51.00;;;;;;4917225;29;20660;-37
2022/10/04 04:06:59;;;;;;;1.55;0.70;;;20.50;50.90;;;;;;4916548;29;20239;-40
2022/10/04 04:09:39;;;;;;;0.50;0.40;;;20.50;51.10;;;;;;4931706;29;20210;-42
2022/10/04 04:12:15;;;;;;;1.25;0.63;;;20.50;51.00;;;;;;4936302;29;20219;-36
2022/10/04 04:14:52;;;;;;;0.95;0.50;;;20.50;51.00;;;;;;4936740;29;20321;-43
2022/10/04 04:17:37;;;;;;;1.35;0.60;;;20.50;51.00;;;;;;4936262;29;20335;-36
2022/10/04 04:20:27;;;;;;;1.60;0.60;;;20.50;50.90;;;;;;4936503;29;20585;-38
2022/10/04 04:23:08;;;;;;;1.38;0.70;;;20.50;50.90;;;;;;4935651;29;20613;-37
2022/10/04 04:25:41;;;;;;;0.85;0.40;;;20.50;50.80;;;;;;4936200;29;20199;-37
2022/10/04 04:28:29;;;;;;;0.60;0.40;;;20.50;50.90;;;;;;4936343;29;20206;-42
2022/10/04 04:31:06;;;;;;;0.85;0.50;;;20.50;50.80;;;;;;4936420;29;20547;-37
2022/10/04 04:33:47;;;;;;;1.90;0.77;;;20.50;50.90;;;;;;4935962;29;20218;-46
2022/10/04 04:36:18;;;;;;;1.13;0.50;;;20.50;50.90;;;;;;4936027;29;20223;-40
2022/10/04 04:41:37;;;;;;;1.15;0.70;;;20.40;50.80;;;;;;4935686;29;20276;-38
2022/10/04 04:44:18;;;;;;;1.33;0.50;;;20.40;50.80;;;;;;4935558;29;20286;-35
2022/10/04 04:46:51;;;;;;;0.80;0.50;;;20.40;50.80;;;;;;4931710;29;20236;-36
2022/10/04 04:49:22;;;;;;;1.52;0.50;;;20.40;50.70;;;;;;4921877;29;20203;-37
2022/10/04 04:51:54;;;;;;;1.00;0.60;;;20.40;50.70;;;;;;4934426;29;20225;-39
2022/10/04 04:54:27;;;;;;;0.47;0.32;;;20.40;50.70;;;;;;4935429;29;20230;-35
2022/10/04 04:56:58;;;;;;;1.08;0.75;;;20.40;50.60;;;;;;4926260;29;20295;-37
2022/10/04 04:59:29;;;;;;;1.40;0.43;;;20.40;50.50;;;;;;4915716;29;20208;-37
2022/10/04 05:02:05;;;;;;;0.95;0.50;;;20.30;50.50;;;;;;4916121;29;20223;-39
2022/10/04 05:04:36;;;;;;;1.95;0.50;;;20.30;50.50;;;;;;4921424;29;20212;-36
2022/10/04 05:07:14;;;;;;;1.05;0.47;;;20.30;50.50;;;;;;4934046;29;20720;-36
2022/10/04 05:09:45;;;;;;;0.73;0.40;;;20.30;50.50;;;;;;4934513;29;20589;-35
2022/10/04 05:12:19;;;;;;;1.25;0.70;;;20.30;50.50;;;;;;4935036;29;20227;-41
2022/10/04 05:14:53;;;;;;;0.88;0.43;;;20.30;50.50;;;;;;4935016;29;20223;-35
2022/10/04 05:17:29;;;;;;;1.17;0.52;;;20.20;50.50;;;;;;4921856;29;20252;-36
2022/10/04 05:20:02;;;;;;;1.33;0.50;;;20.20;50.40;;;;;;4915810;29;20200;-38
2022/10/04 05:22:34;;;;;;;0.75;0.60;;;20.20;50.50;;;;;;4917167;29;20228;-38
2022/10/04 05:25:08;;;;;;;0.40;0.40;;;20.20;50.30;;;;;;4934339;29;20203;-42
2022/10/04 05:27:41;;;;;;;1.48;0.70;;;20.20;50.20;;;;;;4934309;29;20222;-35
2022/10/04 05:30:22;;;;;;;0.40;0.40;;;20.20;50.20;;;;;;4934146;29;20287;-38
2022/10/04 05:33:02;;;;;;;0.73;0.47;;;20.20;50.00;;;;;;4934704;29;20585;-48
2022/10/04 05:35:40;;;;;;;2.58;0.50;;;20.10;49.90;;;;;;4934305;29;20695;-45
2022/10/04 05:38:18;;;;;;;0.60;0.43;;;20.10;50.50;;;;;;4934947;29;20647;-42
2022/10/04 05:40:57;;;;;;;1.25;0.50;;;20.10;49.80;;;;;;4934817;29;20210;-39
2022/10/04 05:43:33;;;;;;;1.50;0.70;;;20.00;49.80;;;;;;4934131;29;20223;-41
2022/10/04 05:46:26;;;;;;;1.42;0.60;;;20.00;49.80;;;;;;4934735;29;20210;-40
2022/10/04 05:49:03;;;;;;;0.60;0.40;;;20.00;49.70;;;;;;4932320;29;20199;-42
2022/10/04 05:51:37;;;;;;;1.58;0.70;;;19.90;49.60;;;;;;4934295;29;20426;-39
2022/10/04 05:54:10;;;;;;;2.00;0.65;;;20.00;49.60;;;;;;4933953;29;20258;-42
2022/10/04 05:57:07;;;;;;;0.82;0.40;;;20.00;49.50;;;;;;4915502;29;20711;-39
2022/10/04 05:59:56;;;;;;;1.15;0.47;;;19.90;49.30;;;;;;4914480;29;20208;-42
2022/10/04 06:02:37;;;;;;;0.80;0.50;;;19.90;49.10;;;;;;4914927;29;20276;-42
2022/10/04 06:05:25;;;;;;;0.63;0.43;;;19.90;49.00;;;;;;4914789;29;20204;-39
2022/10/04 06:08:03;;;;;;;0.70;0.40;;;19.80;49.00;;;;;;4917771;29;20247;-35
2022/10/04 06:10:50;;;;;;;0.95;0.52;;;19.80;48.90;;;;;;4933678;29;20202;-36
2022/10/04 06:13:50;;;;;;;1.40;0.50;;;19.80;48.90;;;;;;4933988;29;20628;-39
2022/10/04 06:16:28;;;;;;;0.40;0.40;;;19.80;48.90;;;;;;4934150;29;20287;-42
2022/10/04 06:19:42;;;;;;;0.95;0.60;;;19.70;48.90;;;;;;4933934;29;20199;-41
2022/10/04 06:22:19;;;;;;;0.93;0.68;;;19.70;48.90;;;;;;4915810;29;20767;-37
2022/10/04 06:24:54;;;;;;;1.48;0.77;;;19.70;49.00;;;;;;4924498;29;20208;-36
2022/10/04 06:27:31;;;;;;;2.33;0.70;;;19.70;49.10;;;;;;4915406;29;20660;-39
2022/10/04 06:30:06;;;;;;;1.25;0.73;;;19.70;49.10;;;;;;4914068;29;20203;-37
2022/10/04 06:32:59;;;;;;;1.35;0.60;;;19.60;48.90;;;;;;4913445;29;20458;-36
2022/10/04 06:36:02;;;;;;;1.30;0.70;;;19.70;49.00;;;;;;4913782;29;20696;-39
2022/10/04 06:39:08;;;;;;;1.13;0.65;;;19.60;49.00;;;;;;4919736;29;20564;-37
2022/10/04 06:42:00;;;;;;;1.95;0.82;;;19.60;49.00;;;;;;4911507;29;20219;-36
2022/10/04 06:45:06;;;;;;;2.53;0.73;;;19.60;49.00;;;;;;4932375;29;20200;-42
2022/10/04 06:47:53;;;;;;;1.25;0.82;;;19.50;49.10;;;;;;4926166;29;20207;-37
2022/10/04 06:50:34;;;;;;;0.77;0.57;;;19.50;49.20;;;;;;4932346;29;20207;-36
2022/10/04 06:53:31;;;;;;;0.90;0.70;;;19.50;49.20;;;;;;4931664;29;20271;-36
2022/10/04 06:56:32;;;;;;;1.15;0.70;;;19.50;49.20;;;;;;4941445;29;20227;-36
2022/10/04 06:59:35;;;;;;;1.35;0.90;;;19.50;49.30;;;;;;4905119;29;20613;-38
2022/10/04 07:02:13;;;;;;;1.00;0.65;;;19.50;49.30;;;;;;4913513;29;20224;-36
2022/10/04 07:04:50;;;;;;;0.98;0.65;;;19.50;49.20;;;;;;4913413;29;20215;-37
2022/10/04 07:07:34;;;;;;;1.17;0.88;;;19.50;49.30;;;;;;4913215;29;20196;-43
2022/10/04 07:10:18;;;;;;;0.77;0.60;;;19.40;49.20;;;;;;4932247;29;20369;-40
2022/10/04 07:12:56;;;;;;;1.52;0.50;;;19.40;49.20;;;;;;4951889;28;20406;-35
2022/10/04 07:15:30;;;;;;;2.45;1.00;;;19.40;49.30;;;;;;4951624;28;20226;-37
2022/10/04 07:18:05;;;;;;;1.30;0.70;;;19.30;49.30;;;;;;4951226;28;20199;-35
2022/10/04 07:20:38;;;;;;;1.40;0.88;;;19.30;49.40;;;;;;4951972;28;20249;-37
2022/10/04 07:23:15;;;;;;;1.25;0.82;;;19.30;49.40;;;;;;4951356;28;20214;-40
2022/10/04 07:25:50;;;;;;;1.50;0.70;;;19.30;49.50;;;;;;4950744;28;20253;-38
2022/10/04 07:31:16;;;;;;;0.95;0.70;;;19.30;49.50;;;;;;4951694;28;20197;-40
2022/10/04 07:33:50;;;;;;;1.10;0.80;;;19.30;49.50;;;;;;4951425;28;20644;-37
2022/10/04 07:36:25;;;;;;;0.57;0.55;;;19.30;49.40;;;;;;4954372;28;20234;-42
2022/10/04 07:39:00;;;;;;;1.58;0.70;;;19.30;49.50;;;;;;4944864;28;20667;-37
2022/10/04 07:41:34;;;;;;;0.77;0.60;;;19.30;49.50;;;;;;4945985;28;20233;-37
2022/10/04 07:44:16;;;;;;;0.88;0.65;;;19.20;49.60;;;;;;4955177;28;20289;-38
2022/10/04 07:46:52;;;;;;;1.35;0.70;;;19.20;49.60;;;;;;4931557;28;20210;-50
2022/10/04 07:49:24;;;;;;;1.20;0.80;;;19.20;49.80;;;;;;4925831;29;20203;-40
2022/10/04 07:52:14;;;;;;;1.77;0.90;;;19.20;49.80;;;;;;4927527;29;20715;-41
2022/10/04 07:54:48;;;;;;;1.15;0.60;;;19.20;49.80;;;;;;4937284;29;20199;-38
2022/10/04 07:57:28;;;;;;;1.27;0.70;;;19.10;49.90;;;;;;4917201;29;20227;-35
2022/10/04 08:00:06;;;;;;;1.17;0.70;;;19.10;49.90;;;;;;4917688;29;20298;-39
2022/10/04 08:02:50;;;;;;;1.40;0.80;;;19.10;49.90;;;;;;4917274;29;20289;-36
2022/10/04 08:05:28;;;;;;;1.20;0.90;;;19.10;49.90;;;;;;4917758;29;20219;-35
2022/10/04 08:08:25;;;;;;;0.77;0.68;;;19.10;49.90;;;;;;4919890;29;20200;-40
2022/10/04 08:11:09;;;;;;;1.60;0.70;;;19.10;49.90;;;;;;4936072;29;20203;-39
2022/10/04 08:13:49;;;;;;;1.58;0.85;;;19.10;49.90;;;;;;4936233;29;20195;-36
2022/10/04 08:16:37;;;;;;;1.00;0.77;;;19.10;49.90;;;;;;4935914;29;20230;-37
2022/10/04 08:19:35;;;;;;;1.65;0.85;;;19.00;49.90;;;;;;4936592;29;20564;-42
2022/10/04 08:22:14;;;;;;;0.75;0.60;;;19.00;50.00;;;;;;4935768;29;20251;-35
2022/10/04 08:24:58;;;;;;;1.25;0.70;;;19.00;50.00;;;;;;4935539;29;20203;-36
2022/10/04 08:30:53;;;;;;;0.57;0.50;;;18.90;50.10;;;;;;4935759;29;20195;-46
2022/10/04 08:33:41;;;;;;;1.65;0.80;;;18.90;50.10;;;;;;4935226;29;20215;-48
2022/10/04 08:36:21;;;;;;;1.10;0.68;;;18.90;50.10;;;;;;4935609;29;20234;-48
2022/10/04 08:38:58;;;;;;;1.70;0.73;;;18.90;50.10;;;;;;4934943;29;20723;-49
2022/10/04 08:41:56;;;;;;;0.95;0.57;;;18.90;50.00;;;;;;4919713;29;20223;-47
2022/10/04 08:44:49;;;;;;;1.48;0.50;;;18.90;50.10;;;;;;4916620;29;20207;-46
2022/10/04 08:47:53;;;;;;;0.68;0.63;;;18.90;50.00;;;;;;4916085;29;20568;-46
2022/10/04 08:50:53;;;;;;;0.52;0.50;;;18.80;50.10;;;;;;4930104;29;20191;-47
2022/10/04 08:54:02;;;;;;;1.42;0.70;;;18.80;50.10;;;;;;4906983;29;20219;-46
2022/10/04 08:56:58;;;;;;;0.60;0.60;;;18.80;50.20;;;;;;4935250;29;20223;-46
2022/10/04 08:59:50;;;;;;;0.80;0.57;;;18.80;50.20;;;;;;4931372;29;20204;-41
2022/10/04 09:02:48;;;;;;;1.33;0.77;;;18.70;50.20;;;;;;4935436;29;20583;-42
2022/10/04 09:05:36;;;;;;;1.88;0.63;;;18.70;50.20;;;;;;4935323;29;20200;-38
2022/10/04 09:08:35;;;;;;;1.13;0.70;;;18.70;50.20;;;;;;4935482;29;20208;-37
2022/10/04 09:11:28;;;;;;;0.80;0.50;;;18.70;50.20;;;;;;4903734;29;20203;-41
2022/10/04 09:14:18;;;;;;;0.55;0.55;;;18.70;50.10;;;;;;4933992;29;20203;-42
2022/10/04 09:16:50;;;;;;;1.10;0.50;;;18.70;50.20;;;;;;4934853;29;20231;-50
2022/10/04 09:19:35;;;;;;;0.93;0.70;;;18.70;50.10;;;;;;4935047;29;20728;-42
2022/10/04 09:22:20;;;;;;;0.90;0.50;;;18.70;50.20;;;;;;4935428;29;20631;-49
2022/10/04 09:25:11;;;;;;;0.93;0.70;;;18.60;50.20;;;;;;4934570;29;20203;-35
2022/10/04 09:28:05;;;;;;;0.70;0.50;;;18.60;50.20;;;;;;4935045;29;20219;-37
2022/10/04 09:30:50;;;;;;;0.60;0.50;;;18.60;50.30;;;;;;4935471;29;20196;-41
2022/10/04 09:33:37;;;;;;;0.65;0.50;;;18.60;50.40;;;;;;4934569;29;20577;-36
2022/10/04 09:36:27;;;;;;;0.95;0.65;;;18.50;50.30;;;;;;4934814;29;20222;-41
2022/10/04 09:39:27;;;;;;;0.80;0.60;;;18.50;50.30;;;;;;4934830;29;20210;-40
2022/10/04 09:42:23;;;;;;;1.10;0.40;;;18.50;50.30;;;;;;4915771;29;20687;-45
2022/10/04 09:45:19;;;;;;;0.70;0.60;;;18.50;50.30;;;;;;4915627;29;20573;-37
2022/10/04 09:48:00;;;;;;;1.10;0.70;;;18.50;50.20;;;;;;4915614;29;20204;-36
2022/10/04 09:51:10;;;;;;;0.60;0.50;;;18.50;50.20;;;;;;4914866;29;20204;-52
2022/10/04 09:53:52;;;;;;;0.85;0.70;;;18.50;50.30;;;;;;4915209;29;20291;-40
2022/10/04 09:56:55;;;;;;;0.85;0.57;;;18.50;50.30;;;;;;4915326;29;20746;-47
2022/10/04 09:59:52;;;;;;;0.55;0.50;;;18.40;50.30;;;;;;4915084;29;20207;-40
2022/10/04 10:02:48;;;;;;;0.70;0.60;;;18.40;50.30;;;;;;4914293;29;20212;-43
2022/10/04 10:05:40;;;;;;;0.75;0.52;;;18.40;50.40;;;;;;4915660;29;20196;-40
2022/10/04 10:08:20;;;;;;;0.93;0.55;;;18.40;50.40;;;;;;4900374;29;20203;-47
2022/10/04 10:14:17;;;;;;;0.50;0.45;;;18.30;50.30;;;;;;4934368;29;20199;-40
2022/10/04 10:17:01;;;;;;;0.82;0.60;;;18.40;50.40;;;;;;4906545;29;20590;-43
2022/10/04 10:19:55;;;;;;;0.60;0.40;;;18.40;50.30;;;;;;4933533;29;20199;-36
2022/10/04 10:22:48;;;;;;;0.75;0.60;;;18.30;50.30;;;;;;4933266;29;20691;-43
2022/10/04 10:25:38;;;;;;;0.85;0.50;;;18.30;50.30;;;;;;4931209;29;20207;-40
2022/10/04 10:28:29;;;;;;;1.27;0.60;;;18.30;50.30;;;;;;4935078;29;20374;-37
2022/10/04 10:31:17;;;;;;;0.50;0.50;;;18.30;50.40;;;;;;4952729;28;20648;-41
2022/10/04 10:34:18;;;;;;;1.08;0.75;;;18.30;50.40;;;;;;4952188;28;20198;-42
2022/10/04 10:37:11;;;;;;;0.70;0.50;;;18.20;50.30;;;;;;4939439;28;20226;-38
2022/10/04 10:40:17;;;;;;;0.90;0.50;;;18.20;50.40;;;;;;4933011;29;20239;-43
2022/10/04 10:43:34;;;;;;;0.68;0.50;;;18.20;50.40;;;;;;4932728;29;20638;-39
2022/10/04 10:46:19;;;;;;;0.40;0.40;;;18.20;50.40;;;;;;4913965;29;20204;-39
2022/10/04 10:49:18;;;;;;;0.70;0.50;;;18.20;50.40;;;;;;4913884;29;20243;-41
2022/10/04 10:52:25;;;;;;;0.57;0.55;;;18.20;50.40;;;;;;4913633;29;20289;-37
2022/10/04 10:55:28;;;;;;;0.70;0.40;;;18.10;50.40;;;;;;4901992;29;20282;-40
2022/10/04 10:58:57;;;;;;;1.05;0.60;;;18.10;50.40;;;;;;4913776;29;20236;-39
2022/10/04 11:01:53;;;;;;;0.75;0.60;;;18.10;50.50;;;;;;4839268;29;20222;-41
2022/10/04 11:04:50;;;;;;;0.93;0.70;;;18.10;50.50;;;;;;4912890;29;20206;-42
2022/10/04 11:07:50;;;;;;;1.30;0.60;;;18.00;50.50;;;;;;4913155;29;20200;-35
2022/10/04 11:11:18;;;;;;;0.80;0.63;;;18.00;50.50;;;;;;4916375;29;20200;-37
2022/10/04 11:14:32;;;;;;;1.05;0.60;;;18.00;50.60;;;;;;4927972;29;20206;-47
2022/10/04 11:17:26;;;;;;;0.57;0.50;;;18.00;50.60;;;;;;4912671;28;20270;-41
2022/10/04 11:20:37;;;;;;;1.15;0.70;;;18.00;50.70;;;;;;4955467;28;20198;-35
2022/10/04 11:23:45;;;;;;;0.77;0.50;;;17.90;50.70;;;;;;4955135;28;20715;-41
2022/10/04 11:26:46;;;;;;;1.45;0.73;;;18.00;50.70;;;;;;4955196;28;20289;-38
2022/10/04 11:29:29;;;;;;;0.50;0.43;;;17.90;50.70;;;;;;4955232;28;20198;-49
2022/10/04 11:32:27;;;;;;;1.90;0.80;;;17.90;50.70;;;;;;4955263;28;20264;-37
2022/10/04 11:35:39;;;;;;;1.10;0.70;;;17.90;50.80;;;;;;4933717;28;20198;-36
2022/10/04 11:38:21;;;;;;;1.35;0.85;;;17.80;50.90;;;;;;4910617;29;20241;-35
2022/10/04 11:41:09;;;;;;;0.90;0.57;;;17.80;50.90;;;;;;4934997;29;20204;-36
2022/10/04 11:44:14;;;;;;;0.80;0.65;;;17.80;51.00;;;;;;4938347;29;20573;-36
2022/10/04 11:46:54;;;;;;;0.70;0.70;;;17.80;51.00;;;;;;4954551;28;20433;-35
2022/10/04 11:49:46;;;;;;;1.42;0.90;;;17.80;51.00;;;;;;4954331;28;20680;-43
2022/10/04 11:53:02;;;;;;;0.80;0.80;;;17.80;51.00;;;;;;4954811;28;20848;-43
2022/10/04 11:56:02;;;;;;;0.88;0.80;;;17.80;51.00;;;;;;4954773;28;20206;-37
2022/10/04 11:58:50;;;;;;;1.30;0.70;;;17.80;51.00;;;;;;4954375;28;20655;-38
2022/10/04 12:01:58;;;;;;;1.63;0.80;;;17.80;51.00;;;;;;4954828;28;20663;-47
2022/10/04 12:04:52;;;;;;;1.10;0.90;;;17.70;51.00;;;;;;4954750;28;20206;-40
2022/10/04 12:07:53;;;;;;;1.17;0.95;;;17.70;51.20;;;;;;4954640;28;20202;-39
2022/10/04 12:10:30;;;;;;;1.35;1.00;;;17.70;51.20;;;;;;4932540;29;20411;-40
2022/10/04 12:13:18;;;;;;;2.28;1.10;;;17.70;51.20;;;;;;4935271;29;20219;-38
2022/10/04 12:16:28;;;;;;;0.95;0.85;;;17.70;51.30;;;;;;4953043;29;20203;-39
2022/10/04 12:19:33;;;;;;;2.25;1.10;;;17.60;51.20;;;;;;4954119;28;20203;-40
2022/10/04 12:22:32;;;;;;;1.25;1.00;;;17.70;51.30;;;;;;4953364;28;20442;-38
2022/10/04 12:25:54;;;;;;;1.75;1.00;;;17.60;51.20;;;;;;4954057;28;20204;-39
2022/10/04 12:28:56;;;;;;;1.80;1.13;;;17.60;51.20;;;;;;4953667;28;20258;-38
2022/10/04 12:31:31;;;;;;;2.03;1.00;;;17.60;51.20;;;;;;4954404;28;20210;-38
2022/10/04 12:34:13;;;;;;;1.60;1.20;;;17.60;51.30;;;;;;4954239;28;20206;-40
2022/10/04 12:37:09;;;;;;;1.42;1.08;;;17.60;51.30;;;;;;4953780;28;20297;-40
2022/10/04 12:40:14;;;;;;;2.17;1.00;;;17.60;51.40;;;;;;4937926;28;20200;-38
2022/10/04 12:42:54;;;;;;;2.17;1.10;;;17.60;51.50;;;;;;4933222;29;20223;-43
2022/10/04 12:45:36;;;;;;;1.58;1.17;;;17.50;51.40;;;;;;4947676;29;20202;-41
2022/10/04 12:48:23;;;;;;;2.15;1.10;;;17.50;51.50;;;;;;4953691;28;20206;-36
2022/10/04 12:51:06;;;;;;;2.45;0.98;;;17.50;51.50;;;;;;4938019;28;20196;-38
2022/10/04 12:53:48;;;;;;;2.38;1.20;;;17.50;51.50;;;;;;4915752;29;20227;-44
2022/10/04 12:56:36;;;;;;;3.15;1.05;;;17.50;51.50;;;;;;4915578;29;20207;-41
2022/10/04 12:59:26;;;;;;;1.65;0.95;;;17.50;51.40;;;;;;4917615;29;20944;-40
2022/10/04 13:02:07;;;;;;;1.95;1.13;;;17.50;51.40;;;;;;4915668;29;20220;-46
2022/10/04 13:04:43;;;;;;;1.67;1.00;;;17.50;51.40;;;;;;4918469;29;20203;-46
2022/10/04 13:08:00;;;;;;;3.08;1.10;;;17.50;51.40;;;;;;4915484;29;20262;-36
2022/10/04 13:10:59;;;;;;;2.10;1.30;;;17.50;51.50;;;;;;4915225;29;20207;-39
2022/10/04 13:13:54;;;;;;;1.88;0.98;;;17.40;51.60;;;;;;4915617;29;20615;-37
2022/10/04 13:16:37;;;;;;;2.30;0.98;;;17.50;51.60;;;;;;4903717;29;20207;-43
2022/10/04 13:19:18;;;;;;;1.90;1.20;;;17.40;51.60;;;;;;4915109;29;20231;-36
2022/10/04 13:22:17;;;;;;;2.65;1.35;;;17.40;51.70;;;;;;4914799;29;20212;-42
2022/10/04 13:25:03;;;;;;;2.15;1.20;;;17.40;51.70;;;;;;4914776;29;20196;-41
2022/10/04 13:27:48;;;;;;;1.75;1.00;;;17.40;51.60;;;;;;4915108;29;20676;-38
2022/10/04 13:30:25;;;;;;;1.48;1.13;;;17.40;51.60;;;;;;4936110;29;20198;-45
2022/10/04 13:33:06;;;;;;;1.75;1.23;;;17.40;51.60;;;;;;4951549;28;20226;-41
2022/10/04 13:35:43;;;;;;;1.63;0.80;;;17.40;51.60;;;;;;4952880;28;20285;-36
2022/10/04 13:38:47;;;;;;;3.05;1.27;;;17.40;51.60;;;;;;4948756;28;20233;-35
2022/10/04 13:41:31;;;;;;;1.88;1.25;;;17.30;51.60;;;;;;4909769;29;20245;-44
2022/10/04 13:44:32;;;;;;;2.50;1.25;;;17.30;51.60;;;;;;4933725;29;20199;-38
2022/10/04 13:47:18;;;;;;;1.45;0.90;;;17.30;51.70;;;;;;4914799;29;20287;-37
2022/10/04 13:50:01;;;;;;;1.90;1.10;;;17.30;51.70;;;;;;4914554;29;20204;-40
2022/10/04 13:58:37;;;;;;;3.35;1.05;;;17.20;51.80;;;;;;4914644;29;20319;-42
2022/10/04 14:01:48;;;;;;;2.55;1.30;;;17.20;51.80;;;;;;4944799;28;20254;-39
2022/10/04 14:04:44;;;;;;;2.08;1.13;;;17.20;51.80;;;;;;4952549;28;20267;-35
2022/10/04 14:07:46;;;;;;;2.20;1.10;;;17.20;51.80;;;;;;4952877;28;20211;-40
2022/10/04 14:10:46;;;;;;;2.53;1.10;;;17.20;51.80;;;;;;4921113;29;20195;-41
2022/10/04 14:14:01;;;;;;;2.60;1.02;;;17.10;51.70;;;;;;4909309;29;20219;-41
2022/10/04 14:16:59;;;;;;;3.65;1.25;;;17.10;51.80;;;;;;4909294;29;20207;-38
2022/10/04 14:20:16;;;;;;;2.83;1.15;;;17.10;51.80;;;;;;4932635;29;20203;-40
2022/10/04 14:23:23;;;;;;;1.88;1.05;;;17.10;51.90;;;;;;4892258;29;20250;-37
2022/10/04 14:26:25;;;;;;;1.83;1.15;;;17.00;51.90;;;;;;4926502;29;20200;-37
2022/10/04 14:29:31;;;;;;;1.58;1.20;;;17.00;51.90;;;;;;4929622;29;20218;-40
2022/10/04 14:32:29;;;;;;;2.00;1.13;;;17.00;51.90;;;;;;4926793;29;20219;-37
2022/10/04 14:35:05;;;;;;;2.17;1.10;;;17.00;51.90;;;;;;4932823;29;20222;-40
2022/10/04 14:38:03;;;;;;;1.45;0.98;;;17.00;52.50;;;;;;4933034;29;20314;-38